HRYR/KGL METAR and TAF weather

Enter ICAO airport designator
Station Type Date Time Source
HRYR METAR 2019/10/18 06:30 UTC NOAA

HRYR 180630Z 16003KT 110V200 9999 SCT025 BKN100 20/17 Q1022 NOSIG


Station Type Date Time Source
HRYR Decoded METAR 2019/10/18 06:30 UTC NOAA

Kigali, Rwanda (HRYR) 01-58S 030-07E 1497M
Oct 18, 2019 - 02:30 AM EDT / 2019.10.18 0630 UTC
Wind: from the SSE (160 degrees) at 3 MPH (3 KT) (direction variable):0
Visibility: greater than 7 mile(s):0
Sky conditions: mostly cloudy
Temperature: 68 F (20 C)
Dew Point: 62 F (17 C)
Relative Humidity: 82%
Pressure (altimeter): 30.18 in. Hg (1022 hPa)
ob: HRYR 180630Z 16003KT 110V200 9999 SCT025 BKN100 20/17 Q1022 NOSIG
cycle: 6

Station Type Date Time Source
HRYR TAF 2019/10/18 06:57 UTC NOAA

TAF TAF HRYR 180500Z 1806/1912 09006KT 9999 SCT025 BKN100
BECMG 1807/1810 18012KT RA BKN023
TEMPO1813/1817 26015KT -TSRA FEW020CB BKN025 FM 182200 33006KT SCT026
BECMG 1903/1906 0700 FG SCT008 BKN018 FM 190900 14007KT 9999 SCT025

Example: see airport list